createdAt,value
2022-08-20T00:01:09.420Z,6.40
2022-08-20T00:03:18.045Z,6.80
2022-08-20T00:05:26.377Z,5.90
2022-08-20T00:07:31.170Z,5.80
2022-08-20T00:09:36.483Z,5.70
2022-08-20T00:11:41.791Z,5.90
2022-08-20T00:13:50.603Z,5.90
2022-08-20T00:15:55.880Z,7.00
2022-08-20T00:18:01.121Z,6.10
2022-08-20T00:20:10.314Z,6.20
2022-08-20T00:22:15.259Z,5.80
2022-08-20T00:24:20.187Z,5.90
2022-08-20T00:26:26.305Z,5.20
2022-08-20T00:28:31.285Z,6.30
2022-08-20T00:30:36.931Z,5.70
2022-08-20T00:32:47.135Z,7.30
2022-08-20T00:34:52.001Z,6.60
2022-08-20T00:36:57.224Z,5.90
2022-08-20T00:39:02.580Z,5.60
2022-08-20T00:41:09.758Z,6.30
2022-08-20T00:43:30.213Z,5.20
2022-08-20T00:45:37.000Z,5.30
2022-08-20T00:47:41.972Z,6.10
2022-08-20T00:49:56.202Z,6.80
2022-08-20T00:52:05.815Z,5.10
2022-08-20T00:54:17.527Z,6.70
2022-08-20T00:56:22.620Z,5.50
2022-08-20T00:58:28.545Z,6.00
2022-08-20T01:00:38.051Z,5.80
2022-08-20T01:02:43.073Z,5.80
2022-08-20T01:04:48.250Z,5.60
2022-08-20T01:06:53.346Z,5.40
2022-08-20T01:08:58.782Z,5.20
2022-08-20T01:11:04.226Z,5.80
2022-08-20T01:13:16.530Z,5.40
2022-08-20T01:15:30.689Z,5.80
2022-08-20T01:17:41.996Z,5.30
2022-08-20T01:19:53.031Z,5.10
2022-08-20T01:22:02.973Z,5.20
2022-08-20T01:24:17.084Z,5.30
2022-08-20T01:26:28.620Z,5.10
2022-08-20T01:28:38.891Z,6.20
2022-08-20T01:30:44.394Z,5.90
2022-08-20T01:32:49.362Z,5.20
2022-08-20T01:34:54.615Z,5.00
2022-08-20T01:37:01.837Z,4.70
2022-08-20T01:39:08.716Z,5.40
2022-08-20T01:41:30.522Z,5.00
2022-08-20T01:43:37.192Z,4.60
2022-08-20T01:45:42.772Z,4.60
2022-08-20T01:47:48.212Z,4.70
2022-08-20T01:50:00.221Z,4.70
2022-08-20T01:52:10.922Z,4.90
2022-08-20T01:54:15.993Z,4.10
2022-08-20T01:56:23.608Z,3.90
2022-08-20T01:58:28.481Z,4.50
2022-08-20T02:00:33.912Z,4.10
2022-08-20T02:02:38.715Z,4.70
2022-08-20T02:04:43.394Z,3.60
2022-08-20T02:06:56.515Z,3.90
2022-08-20T02:09:04.625Z,3.80
2022-08-20T02:11:09.860Z,5.00
2022-08-20T02:13:15.229Z,4.00
2022-08-20T02:15:19.898Z,3.60
2022-08-20T02:17:40.752Z,3.80
2022-08-20T02:19:49.020Z,4.00
2022-08-20T02:21:57.711Z,3.50
2022-08-20T02:24:03.002Z,3.60
2022-08-20T02:26:07.750Z,3.40
2022-08-20T02:28:14.936Z,3.50
2022-08-20T02:30:27.712Z,3.80
2022-08-20T02:32:34.308Z,3.30
2022-08-20T02:34:39.525Z,3.10
2022-08-20T02:36:44.628Z,2.90
2022-08-20T02:38:49.577Z,3.50
2022-08-20T02:40:54.255Z,3.50
2022-08-20T02:42:59.228Z,4.00
2022-08-20T02:45:05.322Z,2.70
2022-08-20T02:47:10.026Z,3.40
2022-08-20T02:49:15.059Z,3.90
2022-08-20T02:51:19.866Z,2.80
2022-08-20T02:53:37.775Z,3.70
2022-08-20T02:55:42.606Z,3.30
2022-08-20T02:57:47.213Z,2.90
2022-08-20T02:59:55.572Z,3.60
2022-08-20T03:02:01.165Z,3.50
2022-08-20T03:04:06.506Z,3.40
2022-08-20T03:06:13.145Z,3.30
2022-08-20T03:08:18.133Z,2.90
2022-08-20T03:10:26.674Z,2.90
2022-08-20T03:12:31.527Z,3.30
2022-08-20T03:14:37.128Z,2.50
2022-08-20T03:16:42.195Z,2.60
2022-08-20T03:18:48.083Z,3.70
2022-08-20T03:20:57.161Z,2.90
2022-08-20T03:23:02.258Z,2.70
2022-08-20T03:25:08.881Z,3.10
2022-08-20T03:27:14.256Z,3.20
2022-08-20T03:29:19.300Z,3.70
2022-08-20T03:31:24.269Z,3.20
2022-08-20T03:33:29.833Z,3.30
2022-08-20T03:35:35.711Z,2.90
2022-08-20T03:37:41.048Z,3.50
2022-08-20T03:39:52.957Z,3.20
2022-08-20T03:41:58.012Z,3.10
2022-08-20T03:44:03.051Z,3.00
2022-08-20T03:46:22.150Z,2.40
2022-08-20T03:48:29.556Z,2.80
2022-08-20T03:50:34.698Z,3.50
2022-08-20T03:52:39.896Z,2.50
2022-08-20T03:54:44.821Z,3.40
2022-08-20T03:56:49.607Z,3.00
2022-08-20T03:58:54.990Z,2.90
2022-08-20T04:00:59.776Z,2.90
2022-08-20T04:03:05.817Z,3.30
2022-08-20T04:05:11.108Z,3.20
2022-08-20T04:07:18.545Z,3.50
2022-08-20T04:09:23.273Z,3.50
2022-08-20T04:11:28.065Z,2.30
2022-08-20T04:13:33.121Z,2.60
2022-08-20T04:15:38.566Z,2.90
2022-08-20T04:17:46.943Z,2.70
2022-08-20T04:19:51.898Z,3.60
2022-08-20T04:21:56.733Z,3.40
2022-08-20T04:24:02.508Z,3.00
2022-08-20T04:26:07.370Z,3.00
2022-08-20T04:28:14.354Z,3.70
2022-08-20T04:30:20.941Z,2.90
2022-08-20T04:32:25.745Z,3.40
2022-08-20T04:34:31.294Z,4.20
2022-08-20T04:36:36.016Z,3.00
2022-08-20T04:38:48.409Z,3.80
2022-08-20T04:40:56.039Z,3.50
2022-08-20T04:43:01.854Z,3.10
2022-08-20T04:45:08.876Z,2.80
2022-08-20T04:47:18.992Z,3.00
2022-08-20T04:49:30.403Z,2.60
2022-08-20T04:51:35.910Z,3.10
2022-08-20T04:53:42.786Z,3.40
2022-08-20T04:55:47.934Z,3.40
2022-08-20T04:57:52.693Z,3.60
2022-08-20T04:59:59.492Z,3.50
2022-08-20T05:02:04.959Z,4.30
2022-08-20T05:04:09.888Z,3.30
2022-08-20T05:06:15.115Z,3.40
2022-08-20T05:08:22.022Z,3.70
2022-08-20T05:10:27.438Z,3.40
2022-08-20T05:12:32.419Z,3.30
2022-08-20T05:14:37.291Z,3.00
2022-08-20T05:16:42.151Z,2.30
2022-08-20T05:18:52.191Z,3.10
2022-08-20T05:20:57.617Z,3.20
2022-08-20T05:23:03.319Z,3.00
2022-08-20T05:25:09.188Z,3.60
2022-08-20T05:27:19.837Z,3.10
2022-08-20T05:29:30.282Z,2.80
2022-08-20T05:31:35.742Z,3.30
2022-08-20T05:33:40.854Z,2.30
2022-08-20T05:35:46.615Z,2.40
2022-08-20T05:37:51.586Z,2.50
2022-08-20T05:39:56.477Z,2.20
2022-08-20T05:42:01.336Z,2.20
2022-08-20T05:44:07.298Z,2.00
2022-08-20T05:46:12.041Z,3.30
2022-08-20T05:48:20.418Z,2.80
2022-08-20T05:50:25.255Z,2.40
2022-08-20T05:52:30.033Z,2.10
2022-08-20T05:54:34.812Z,1.60
2022-08-20T05:56:40.101Z,1.60
2022-08-20T05:58:45.045Z,2.30
2022-08-20T06:00:51.138Z,2.10
2022-08-20T06:02:55.870Z,2.60
2022-08-20T06:05:00.805Z,2.10
2022-08-20T06:07:07.282Z,2.40
2022-08-20T06:09:12.203Z,2.30
2022-08-20T06:11:17.099Z,1.90
2022-08-20T06:13:22.025Z,2.80
2022-08-20T06:15:26.954Z,2.00
2022-08-20T06:17:36.409Z,1.90
2022-08-20T06:19:46.916Z,2.10
2022-08-20T06:21:51.980Z,2.30
2022-08-20T06:24:00.736Z,1.60
2022-08-20T06:26:07.876Z,1.50
2022-08-20T06:28:13.274Z,1.90
2022-08-20T06:30:18.082Z,2.30
2022-08-20T06:32:32.441Z,2.00
2022-08-20T06:34:38.043Z,2.40
2022-08-20T06:36:54.812Z,2.50
2022-08-20T06:38:59.676Z,2.00
2022-08-20T06:41:04.567Z,2.90
2022-08-20T06:43:09.514Z,2.40
2022-08-20T06:45:16.842Z,3.10
2022-08-20T06:47:22.677Z,2.20
2022-08-20T06:49:27.425Z,2.10
2022-08-20T06:51:33.233Z,2.70
2022-08-20T06:53:38.121Z,3.70
2022-08-20T06:55:48.393Z,2.30
2022-08-20T06:58:00.760Z,2.30
2022-08-20T07:00:08.498Z,2.30
2022-08-20T07:02:13.365Z,2.40
2022-08-20T07:04:18.169Z,3.40
2022-08-20T07:06:23.341Z,2.60
2022-08-20T07:08:28.338Z,2.50
2022-08-20T07:10:33.174Z,1.90
2022-08-20T07:12:38.125Z,2.70
2022-08-20T07:14:42.937Z,2.50
2022-08-20T07:16:48.324Z,3.40
2022-08-20T07:18:52.982Z,4.10
2022-08-20T07:20:58.061Z,2.60
2022-08-20T07:23:03.297Z,3.60
2022-08-20T07:25:11.838Z,2.70
2022-08-20T07:27:19.646Z,2.00
2022-08-20T07:29:24.388Z,1.80
2022-08-20T07:31:29.096Z,3.00
2022-08-20T07:33:36.543Z,2.50
2022-08-20T07:35:41.544Z,2.10
2022-08-20T07:37:48.834Z,2.30
2022-08-20T07:39:53.661Z,2.60
2022-08-20T07:41:58.478Z,2.20
2022-08-20T07:44:08.108Z,2.20
2022-08-20T07:46:14.680Z,2.40
2022-08-20T07:48:29.730Z,2.20
2022-08-20T07:50:36.396Z,1.80
2022-08-20T07:52:41.186Z,3.00
2022-08-20T07:54:45.949Z,2.00
2022-08-20T07:56:50.633Z,4.50
2022-08-20T07:58:56.552Z,2.40
2022-08-20T08:01:01.591Z,2.40
2022-08-20T08:03:07.229Z,2.00
2022-08-20T08:05:12.285Z,1.70
2022-08-20T08:07:17.130Z,2.00
2022-08-20T08:09:22.000Z,2.90
2022-08-20T08:11:26.940Z,1.80
2022-08-20T08:13:34.846Z,2.60
2022-08-20T08:15:44.450Z,2.10
2022-08-20T08:17:51.778Z,1.70
2022-08-20T08:19:56.630Z,2.90
2022-08-20T08:22:01.438Z,2.10
2022-08-20T08:24:06.627Z,1.60
2022-08-20T08:26:19.033Z,3.60
2022-08-20T08:28:23.951Z,2.20
2022-08-20T08:30:28.733Z,1.50
2022-08-20T08:32:35.308Z,1.60
2022-08-20T08:34:40.023Z,1.40
2022-08-20T08:36:44.744Z,1.50
2022-08-20T08:38:49.456Z,1.30
2022-08-20T08:40:59.148Z,1.70
2022-08-20T08:43:05.827Z,1.80
2022-08-20T08:45:12.603Z,4.10
2022-08-20T08:47:25.716Z,1.40
2022-08-20T08:49:37.517Z,1.90
2022-08-20T08:51:47.554Z,1.90
2022-08-20T08:53:54.398Z,1.70
2022-08-20T08:55:59.908Z,1.90
2022-08-20T08:58:17.236Z,2.10
2022-08-20T09:00:23.373Z,2.00
2022-08-20T09:02:30.698Z,2.40
2022-08-20T09:04:40.411Z,2.30
2022-08-20T09:06:52.181Z,4.20
2022-08-20T09:09:00.572Z,1.50
2022-08-20T09:11:08.357Z,2.50
2022-08-20T09:13:13.602Z,1.80
2022-08-20T09:15:18.537Z,1.70
2022-08-20T09:17:24.810Z,1.50
2022-08-20T09:19:29.831Z,1.80
2022-08-20T09:21:34.571Z,2.30
2022-08-20T09:23:39.543Z,1.80
2022-08-20T09:25:44.174Z,2.90
2022-08-20T09:27:49.236Z,2.70
2022-08-20T09:29:55.718Z,1.70
2022-08-20T09:32:09.218Z,2.10
2022-08-20T09:34:14.360Z,2.00
2022-08-20T09:36:31.731Z,2.30
2022-08-20T09:38:37.694Z,2.20
2022-08-20T09:40:42.793Z,2.30
2022-08-20T09:42:47.817Z,3.90
2022-08-20T09:44:52.630Z,3.40
2022-08-20T09:46:57.282Z,3.00
2022-08-20T09:49:02.001Z,2.60
2022-08-20T09:51:07.078Z,3.00
2022-08-20T09:53:12.862Z,2.10
2022-08-20T09:55:22.619Z,3.20
2022-08-20T09:57:29.430Z,2.90
2022-08-20T09:59:37.577Z,3.70
2022-08-20T10:01:42.352Z,3.60
2022-08-20T10:03:48.766Z,3.10
2022-08-20T10:05:53.598Z,3.40
2022-08-20T10:07:58.817Z,2.70
2022-08-20T10:10:04.915Z,3.30
2022-08-20T10:12:10.059Z,2.90
2022-08-20T10:14:14.761Z,2.90
2022-08-20T10:16:19.488Z,3.50
2022-08-20T10:18:27.113Z,3.60
2022-08-20T10:20:31.796Z,3.50
2022-08-20T10:22:36.642Z,2.80
2022-08-20T10:24:41.660Z,3.70
2022-08-20T10:26:46.298Z,2.90
2022-08-20T10:28:50.979Z,2.20
2022-08-20T10:30:55.669Z,3.50
2022-08-20T10:33:00.416Z,3.20
2022-08-20T10:35:05.857Z,3.50
2022-08-20T10:37:14.401Z,3.40
2022-08-20T10:39:19.150Z,3.10
2022-08-20T10:41:23.951Z,3.30
2022-08-20T10:43:28.661Z,3.10
2022-08-20T10:45:33.382Z,3.00
2022-08-20T10:47:38.643Z,3.10
2022-08-20T10:49:43.329Z,3.50
2022-08-20T10:51:48.060Z,3.40
2022-08-20T10:53:53.456Z,3.60
2022-08-20T10:55:59.223Z,3.40
2022-08-20T10:58:06.939Z,2.80
2022-08-20T11:00:13.794Z,3.20
2022-08-20T11:02:18.875Z,4.20
2022-08-20T11:04:23.532Z,3.60
2022-08-20T11:06:28.254Z,3.60
2022-08-20T11:08:34.141Z,3.60
2022-08-20T11:10:40.357Z,4.20
2022-08-20T11:12:46.451Z,4.10
2022-08-20T11:14:52.332Z,3.80
2022-08-20T11:16:56.951Z,4.00
2022-08-20T11:19:01.648Z,3.50
2022-08-20T11:21:06.749Z,3.60
2022-08-20T11:23:13.626Z,2.80
2022-08-20T11:25:19.211Z,3.90
2022-08-20T11:27:27.513Z,4.10
2022-08-20T11:29:34.099Z,4.10
2022-08-20T11:31:38.847Z,4.30
2022-08-20T11:33:43.644Z,4.90
2022-08-20T11:35:49.987Z,4.60
2022-08-20T11:37:56.600Z,4.90
2022-08-20T11:40:01.764Z,4.40
2022-08-20T11:42:07.546Z,5.60
2022-08-20T11:44:20.446Z,4.10
2022-08-20T11:46:28.588Z,3.90
2022-08-20T11:48:33.490Z,4.70
2022-08-20T11:50:38.256Z,3.80
2022-08-20T11:52:43.159Z,5.30
2022-08-20T11:54:49.967Z,4.40
2022-08-20T11:56:57.784Z,6.10
2022-08-20T11:59:02.593Z,4.20
2022-08-20T12:01:08.773Z,4.40
2022-08-20T12:03:13.592Z,3.80
2022-08-20T12:05:21.482Z,3.90
2022-08-20T12:07:27.016Z,4.80
2022-08-20T12:09:31.729Z,4.50
2022-08-20T12:11:36.482Z,5.00
2022-08-20T12:13:48.157Z,4.40
2022-08-20T12:15:55.840Z,5.00
2022-08-20T12:18:00.593Z,5.40
2022-08-20T12:20:09.845Z,4.40
2022-08-20T12:22:20.437Z,4.40
2022-08-20T12:24:30.120Z,4.50
2022-08-20T12:26:34.776Z,4.70
2022-08-20T12:28:39.739Z,4.80
2022-08-20T12:30:44.469Z,4.80
2022-08-20T12:32:50.020Z,5.20
2022-08-20T12:34:55.202Z,4.40
2022-08-20T12:37:04.166Z,4.70
2022-08-20T12:39:08.850Z,4.20
2022-08-20T12:41:13.520Z,4.70
2022-08-20T12:43:22.865Z,4.80
2022-08-20T12:45:30.135Z,6.50
2022-08-20T12:47:36.767Z,5.50
2022-08-20T12:49:45.555Z,5.20
2022-08-20T12:51:50.265Z,6.60
2022-08-20T12:53:54.925Z,5.50
2022-08-20T12:55:59.711Z,5.70
2022-08-20T12:58:07.623Z,5.00
2022-08-20T13:00:15.891Z,6.60
2022-08-20T13:02:20.572Z,5.20
2022-08-20T13:04:25.757Z,5.00
2022-08-20T13:06:30.402Z,5.30
2022-08-20T13:08:35.091Z,5.50
2022-08-20T13:10:41.829Z,5.00
2022-08-20T13:12:46.567Z,4.70
2022-08-20T13:14:51.330Z,4.60
2022-08-20T13:17:01.206Z,5.00
2022-08-20T13:19:05.863Z,3.90
2022-08-20T13:21:10.585Z,4.80
2022-08-20T13:23:15.351Z,4.60
2022-08-20T13:25:20.706Z,5.00
2022-08-20T13:27:25.446Z,5.00
2022-08-20T13:29:30.171Z,5.80
2022-08-20T13:31:34.926Z,4.50
2022-08-20T13:33:39.615Z,4.90
2022-08-20T13:35:44.317Z,5.20
2022-08-20T13:37:50.325Z,4.80
2022-08-20T13:39:55.767Z,4.80
2022-08-20T13:42:00.470Z,4.80
2022-08-20T13:44:05.536Z,4.30
2022-08-20T13:46:10.361Z,4.30
2022-08-20T13:48:15.493Z,3.90
2022-08-20T13:50:22.851Z,4.20
2022-08-20T13:52:28.173Z,5.90
2022-08-20T13:54:32.909Z,5.40
2022-08-20T13:56:38.711Z,5.90
2022-08-20T13:58:43.384Z,5.90
2022-08-20T14:00:48.657Z,5.40
2022-08-20T14:02:53.671Z,5.30
2022-08-20T14:04:58.405Z,4.80
2022-08-20T14:07:13.694Z,4.90
2022-08-20T14:09:18.389Z,4.90
2022-08-20T14:11:23.063Z,5.60
2022-08-20T14:13:31.915Z,5.20
2022-08-20T14:15:37.518Z,5.20
2022-08-20T14:17:48.702Z,4.80
2022-08-20T14:20:00.675Z,4.70
2022-08-20T14:22:06.089Z,4.90
2022-08-20T14:24:10.827Z,4.70
2022-08-20T14:26:15.733Z,5.00
2022-08-20T14:28:22.957Z,4.70
2022-08-20T14:30:30.236Z,4.60
2022-08-20T14:32:34.945Z,5.00
2022-08-20T14:34:40.147Z,5.90
2022-08-20T14:36:44.888Z,5.00
2022-08-20T14:38:52.917Z,5.10
2022-08-20T14:40:57.572Z,5.10
2022-08-20T14:43:02.513Z,4.80
2022-08-20T14:45:10.402Z,5.70
2022-08-20T14:47:18.772Z,9.80
2022-08-20T14:49:23.462Z,6.20
2022-08-20T14:51:28.165Z,6.20
2022-08-20T14:53:32.846Z,5.70
2022-08-20T14:55:38.469Z,6.30
2022-08-20T14:57:44.087Z,6.90
2022-08-20T14:59:49.159Z,6.50
2022-08-20T15:01:54.112Z,6.30
2022-08-20T15:04:00.799Z,6.10
2022-08-20T15:06:09.751Z,6.00
2022-08-20T15:08:28.822Z,6.30
2022-08-20T15:10:34.340Z,5.30
2022-08-20T15:12:39.191Z,5.50
2022-08-20T15:14:47.988Z,6.20
2022-08-20T15:16:54.545Z,6.00
2022-08-20T15:18:59.924Z,5.80
2022-08-20T15:21:04.874Z,6.00
2022-08-20T15:23:15.190Z,7.40
2022-08-20T15:25:22.586Z,6.10
2022-08-20T15:27:27.747Z,6.00
2022-08-20T15:29:33.426Z,6.40
2022-08-20T15:31:38.044Z,7.80
2022-08-20T15:33:43.074Z,6.70
2022-08-20T15:35:48.158Z,6.90
2022-08-20T15:37:54.658Z,6.20
2022-08-20T15:40:04.445Z,6.60
2022-08-20T15:42:11.100Z,7.70
2022-08-20T15:44:15.841Z,6.60
2022-08-20T15:46:20.657Z,6.90
2022-08-20T15:48:34.445Z,6.60
2022-08-20T15:50:56.740Z,6.30
2022-08-20T15:53:04.914Z,6.70
2022-08-20T15:55:13.266Z,7.70
2022-08-20T15:57:36.401Z,6.20
2022-08-20T15:59:50.759Z,5.80
2022-08-20T16:02:12.287Z,6.10
2022-08-20T16:04:49.719Z,6.80
2022-08-20T16:06:59.703Z,6.20
2022-08-20T16:09:25.773Z,8.10
2022-08-20T16:11:42.451Z,7.70
2022-08-20T16:13:50.954Z,7.10
2022-08-20T16:15:59.205Z,8.50
2022-08-20T16:18:09.136Z,6.30
2022-08-20T16:20:20.500Z,5.90
2022-08-20T16:22:26.977Z,6.40
2022-08-20T16:24:32.400Z,6.50
2022-08-20T16:26:59.552Z,7.50
2022-08-20T16:29:11.463Z,6.00
2022-08-20T16:31:22.253Z,6.10
2022-08-20T16:33:34.207Z,6.30
2022-08-20T16:35:47.190Z,5.90
2022-08-20T16:37:59.488Z,6.90
2022-08-20T16:40:16.891Z,6.60
2022-08-20T16:42:26.152Z,6.10
2022-08-20T16:44:34.249Z,6.20
2022-08-20T16:46:43.421Z,5.50
2022-08-20T16:48:50.724Z,6.40
2022-08-20T16:51:01.853Z,5.80
2022-08-20T16:53:10.190Z,5.70
2022-08-20T16:55:15.748Z,5.60
2022-08-20T16:57:22.039Z,6.50
2022-08-20T16:59:27.834Z,5.70
2022-08-20T17:01:33.347Z,5.30
2022-08-20T17:03:47.618Z,6.30
2022-08-20T17:05:55.306Z,5.50
2022-08-20T17:08:04.030Z,6.00
2022-08-20T17:10:18.140Z,5.60
2022-08-20T17:12:27.953Z,6.00
2022-08-20T17:14:49.780Z,5.10
2022-08-20T17:16:55.182Z,6.30
2022-08-20T17:19:11.055Z,6.00
2022-08-20T17:21:17.288Z,6.90
2022-08-20T17:23:22.819Z,7.60
2022-08-20T17:25:33.659Z,6.20
2022-08-20T17:27:40.265Z,6.40
2022-08-20T17:29:54.429Z,5.50
2022-08-20T17:32:01.073Z,5.90
2022-08-20T17:34:12.778Z,5.90
2022-08-20T17:36:22.597Z,6.40
2022-08-20T17:38:34.890Z,5.10
2022-08-20T17:40:43.112Z,4.60
2022-08-20T17:42:50.759Z,5.70
2022-08-20T17:45:11.851Z,4.80
2022-08-20T17:47:20.326Z,4.80
2022-08-20T17:49:36.602Z,5.70
2022-08-20T17:51:46.869Z,5.00
2022-08-20T17:53:55.849Z,5.00
2022-08-20T17:56:13.168Z,5.60
2022-08-20T17:58:20.413Z,6.40
2022-08-20T18:00:27.583Z,4.80
2022-08-20T18:02:33.344Z,4.40
2022-08-20T18:04:38.113Z,3.60
2022-08-20T18:06:54.907Z,3.90
2022-08-20T18:09:04.280Z,3.90
2022-08-20T18:11:17.260Z,4.30
2022-08-20T18:13:31.498Z,5.90
2022-08-20T18:15:40.802Z,5.50
2022-08-20T18:18:13.066Z,3.80
2022-08-20T18:20:42.840Z,3.10
2022-08-20T18:22:53.339Z,6.10
2022-08-20T18:25:06.101Z,6.10
2022-08-20T18:27:15.434Z,4.70
2022-08-20T18:29:26.384Z,4.70
2022-08-20T18:31:39.623Z,4.20
2022-08-20T18:33:44.772Z,3.20
2022-08-20T18:35:51.507Z,4.10
2022-08-20T18:37:56.253Z,3.40
2022-08-20T18:40:14.214Z,4.20
2022-08-20T18:42:29.292Z,2.70
2022-08-20T18:44:41.123Z,3.80
2022-08-20T18:46:55.571Z,2.60
2022-08-20T18:49:03.830Z,3.70
2022-08-20T18:51:12.675Z,4.80
2022-08-20T18:53:20.205Z,2.80
2022-08-20T18:55:33.760Z,3.90
2022-08-20T18:57:54.445Z,3.40
2022-08-20T19:00:05.626Z,3.50
2022-08-20T19:02:22.067Z,4.60
2022-08-20T19:04:31.508Z,3.50
2022-08-20T19:06:43.691Z,4.30
2022-08-20T19:08:53.672Z,3.60
2022-08-20T19:11:11.068Z,2.80
2022-08-20T19:13:43.716Z,3.50
2022-08-20T19:15:56.710Z,3.00
2022-08-20T19:18:10.214Z,3.10
2022-08-20T19:20:19.374Z,3.10
2022-08-20T19:22:24.144Z,2.30
2022-08-20T19:24:38.661Z,2.70
2022-08-20T19:26:50.071Z,2.30
2022-08-20T19:28:58.727Z,3.00
2022-08-20T19:31:14.638Z,5.70
2022-08-20T19:33:27.307Z,4.40
2022-08-20T19:35:35.091Z,3.50
2022-08-20T19:37:50.966Z,4.50
2022-08-20T19:39:57.433Z,4.70
2022-08-20T19:42:04.759Z,5.90
2022-08-20T19:44:11.341Z,4.30
2022-08-20T19:46:18.542Z,3.90
2022-08-20T19:48:38.725Z,4.40
2022-08-20T19:50:50.248Z,4.50
2022-08-20T19:53:02.964Z,5.10
2022-08-20T19:55:18.207Z,4.10
2022-08-20T19:57:25.622Z,5.60
2022-08-20T19:59:30.610Z,4.70
2022-08-20T20:01:36.349Z,5.30
2022-08-20T20:03:41.457Z,4.30
2022-08-20T20:05:52.759Z,5.00
2022-08-20T20:08:03.202Z,4.80
2022-08-20T20:10:19.811Z,4.90
2022-08-20T20:12:26.052Z,5.00
2022-08-20T20:14:33.915Z,4.70
2022-08-20T20:16:40.336Z,5.50
2022-08-20T20:18:45.574Z,5.50
2022-08-20T20:20:57.403Z,5.80
2022-08-20T20:23:13.290Z,5.30
2022-08-20T20:25:23.970Z,5.60
2022-08-20T20:27:29.502Z,5.70
2022-08-20T20:29:37.881Z,6.90
2022-08-20T20:31:48.895Z,4.90
2022-08-20T20:33:57.012Z,5.50
2022-08-20T20:36:07.866Z,5.40
2022-08-20T20:38:25.135Z,5.70
2022-08-20T20:40:33.952Z,5.70
2022-08-20T20:42:41.182Z,6.00
2022-08-20T20:44:46.301Z,5.10
2022-08-20T20:46:56.173Z,5.20
2022-08-20T20:49:12.568Z,6.20
2022-08-20T20:51:22.954Z,5.40
2022-08-20T20:53:53.389Z,5.50
2022-08-20T20:55:58.504Z,5.30
2022-08-20T20:58:04.441Z,4.90
2022-08-20T21:00:13.028Z,4.90
2022-08-20T21:02:18.950Z,4.80
2022-08-20T21:04:25.098Z,5.10
2022-08-20T21:06:30.173Z,5.60
2022-08-20T21:08:34.962Z,5.30
2022-08-20T21:10:42.169Z,4.60
2022-08-20T21:12:51.903Z,4.70
2022-08-20T21:14:57.571Z,4.60
2022-08-20T21:17:05.606Z,4.50
2022-08-20T21:19:10.859Z,5.10
2022-08-20T21:21:16.194Z,4.90
2022-08-20T21:23:20.897Z,4.50
2022-08-20T21:25:45.185Z,5.80
2022-08-20T21:27:51.930Z,6.60
2022-08-20T21:29:56.634Z,4.90
2022-08-20T21:32:01.581Z,5.40
2022-08-20T21:34:06.317Z,5.00
2022-08-20T21:36:11.057Z,5.30
2022-08-20T21:38:15.874Z,5.40
2022-08-20T21:40:21.796Z,5.30
2022-08-20T21:42:29.675Z,4.90
2022-08-20T21:44:34.947Z,5.00
2022-08-20T21:46:40.071Z,5.00
2022-08-20T21:48:48.065Z,5.40
2022-08-20T21:50:53.074Z,4.70
2022-08-20T21:53:00.076Z,5.30
2022-08-20T21:55:09.175Z,5.20
2022-08-20T21:57:18.635Z,4.70
2022-08-20T21:59:24.346Z,4.90
2022-08-20T22:01:29.406Z,5.10
2022-08-20T22:03:37.215Z,6.20
2022-08-20T22:05:44.502Z,5.10
2022-08-20T22:07:49.215Z,4.80
2022-08-20T22:09:54.038Z,5.60
2022-08-20T22:12:00.754Z,5.30
2022-08-20T22:14:08.557Z,5.20
2022-08-20T22:16:15.093Z,5.30
2022-08-20T22:18:19.850Z,5.90
2022-08-20T22:20:24.836Z,5.40
2022-08-20T22:22:29.524Z,5.80
2022-08-20T22:24:36.988Z,5.60
2022-08-20T22:26:42.355Z,5.10
2022-08-20T22:28:51.247Z,6.20
2022-08-20T22:30:56.569Z,5.50
2022-08-20T22:33:04.037Z,6.20
2022-08-20T22:35:10.193Z,6.60
2022-08-20T22:37:18.202Z,5.40
2022-08-20T22:39:22.883Z,5.50
2022-08-20T22:41:28.087Z,5.60
2022-08-20T22:43:32.803Z,5.00
2022-08-20T22:45:38.861Z,5.60
2022-08-20T22:47:44.188Z,5.30
2022-08-20T22:49:49.041Z,5.50
2022-08-20T22:51:53.778Z,6.50
2022-08-20T22:54:02.725Z,5.70
2022-08-20T22:56:07.800Z,5.50
2022-08-20T22:58:31.028Z,5.00
2022-08-20T23:00:37.555Z,4.80
2022-08-20T23:02:51.415Z,5.30
2022-08-20T23:04:56.136Z,5.10
2022-08-20T23:07:02.537Z,5.10
2022-08-20T23:09:07.309Z,5.40
2022-08-20T23:11:17.453Z,5.20
2022-08-20T23:13:22.095Z,5.20
2022-08-20T23:15:28.154Z,5.00
2022-08-20T23:17:33.199Z,5.20
2022-08-20T23:19:39.098Z,5.40
2022-08-20T23:21:43.857Z,5.70
2022-08-20T23:23:48.542Z,5.90
2022-08-20T23:25:54.242Z,5.50
2022-08-20T23:28:03.448Z,6.10
2022-08-20T23:30:11.443Z,5.30
2022-08-20T23:32:16.652Z,5.60
2022-08-20T23:34:24.583Z,6.00
2022-08-20T23:36:29.575Z,5.60
2022-08-20T23:38:34.321Z,5.70
2022-08-20T23:40:39.358Z,5.80
2022-08-20T23:42:43.982Z,5.40
2022-08-20T23:44:48.621Z,5.50
2022-08-20T23:46:54.604Z,5.40
2022-08-20T23:48:59.466Z,5.30
2022-08-20T23:51:04.644Z,5.80
2022-08-20T23:53:12.277Z,5.90
2022-08-20T23:55:17.049Z,5.20
2022-08-20T23:57:21.691Z,5.10
2022-08-20T23:59:26.501Z,5.20
